createdAt,value
2022-08-10T00:00:40.261Z,25.00
2022-08-10T00:03:14.370Z,25.00
2022-08-10T00:05:53.197Z,25.00
2022-08-10T00:08:27.650Z,25.10
2022-08-10T00:11:03.300Z,25.00
2022-08-10T00:13:38.522Z,25.00
2022-08-10T00:16:13.645Z,25.00
2022-08-10T00:18:47.800Z,25.00
2022-08-10T00:21:21.919Z,25.10
2022-08-10T00:24:01.245Z,25.10
2022-08-10T00:28:00.872Z,25.00
2022-08-10T00:29:31.029Z,25.00
2022-08-10T00:32:08.173Z,25.00
2022-08-10T00:34:42.263Z,25.00
2022-08-10T00:37:17.484Z,25.00
2022-08-10T00:39:51.963Z,25.00
2022-08-10T00:42:30.265Z,25.00
2022-08-10T00:45:05.014Z,25.00
2022-08-10T00:47:39.104Z,25.10
2022-08-10T00:50:18.212Z,25.00
2022-08-10T00:52:52.531Z,25.10
2022-08-10T00:55:26.683Z,25.00
2022-08-10T00:58:02.588Z,25.00
2022-08-10T01:00:36.747Z,25.00
2022-08-10T01:03:10.777Z,25.00
2022-08-10T01:06:02.543Z,25.00
2022-08-10T01:08:46.569Z,25.00
2022-08-10T01:12:31.407Z,25.00
2022-08-10T01:14:36.374Z,25.00
2022-08-10T01:17:15.445Z,25.10
2022-08-10T01:19:58.760Z,25.00
2022-08-10T01:23:00.809Z,25.00
2022-08-10T01:26:12.072Z,25.00
2022-08-10T01:29:09.654Z,25.00
2022-08-10T01:31:51.448Z,25.00
2022-08-10T01:34:29.802Z,25.00
2022-08-10T01:37:28.891Z,25.00
2022-08-10T01:40:09.994Z,25.00
2022-08-10T01:42:47.211Z,25.00
2022-08-10T01:45:23.867Z,25.00
2022-08-10T01:48:19.103Z,25.00
2022-08-10T01:51:00.067Z,25.00
2022-08-10T01:53:41.908Z,25.00
2022-08-10T01:56:18.541Z,25.00
2022-08-10T01:58:59.358Z,25.00
2022-08-10T02:01:39.505Z,25.00
2022-08-10T02:04:18.149Z,25.00
2022-08-10T02:06:53.928Z,25.00
2022-08-10T02:09:30.261Z,25.00
2022-08-10T02:12:09.038Z,25.00
2022-08-10T02:14:48.035Z,25.00
2022-08-10T02:18:00.595Z,25.00
2022-08-10T02:20:25.448Z,25.00
2022-08-10T02:23:03.816Z,25.00
2022-08-10T02:25:42.040Z,25.00
2022-08-10T02:28:29.376Z,25.00
2022-08-10T02:31:11.739Z,25.00
2022-08-10T02:33:56.306Z,25.00
2022-08-10T02:36:35.874Z,25.00
2022-08-10T02:39:11.216Z,25.00
2022-08-10T02:45:08.286Z,25.00
2022-08-10T02:45:21.566Z,25.00
2022-08-10T02:47:54.112Z,25.00
2022-08-10T02:50:29.962Z,25.00
2022-08-10T02:53:08.017Z,25.00
2022-08-10T02:56:07.053Z,25.00
2022-08-10T02:58:44.912Z,25.00
2022-08-10T03:01:22.784Z,25.00
2022-08-10T03:04:01.300Z,25.00
2022-08-10T03:06:39.277Z,25.00
2022-08-10T03:09:18.629Z,25.00
2022-08-10T03:12:36.735Z,25.00
2022-08-10T03:14:50.031Z,25.00
2022-08-10T03:17:28.479Z,25.00
2022-08-10T03:20:38.492Z,25.00
2022-08-10T03:22:59.514Z,25.00
2022-08-10T03:25:35.920Z,25.00
2022-08-10T03:28:11.309Z,25.00
2022-08-10T03:30:54.766Z,25.00
2022-08-10T03:33:32.798Z,25.00
2022-08-10T03:36:43.508Z,25.00
2022-08-10T03:39:01.604Z,25.00
2022-08-10T03:41:41.161Z,25.00
2022-08-10T03:44:26.230Z,25.00
2022-08-10T03:47:02.275Z,25.00
2022-08-10T03:49:39.859Z,25.00
2022-08-10T03:52:14.675Z,25.00
2022-08-10T03:54:51.826Z,25.00
2022-08-10T03:57:30.240Z,25.00
2022-08-10T04:00:04.994Z,25.00
2022-08-10T04:02:45.457Z,25.00
2022-08-10T04:05:22.563Z,25.00
2022-08-10T04:07:57.188Z,25.00
2022-08-10T04:10:31.426Z,25.00
2022-08-10T04:13:06.968Z,25.00
2022-08-10T04:15:42.799Z,25.00
2022-08-10T04:18:16.897Z,25.00
2022-08-10T04:20:54.782Z,25.00
2022-08-10T04:23:32.097Z,25.00
2022-08-10T04:26:06.383Z,25.00
2022-08-10T04:28:44.668Z,25.00
2022-08-10T04:31:20.858Z,25.00
2022-08-10T04:33:55.848Z,25.00
2022-08-10T04:36:30.967Z,25.00
2022-08-10T04:39:05.127Z,25.00
2022-08-10T04:41:39.214Z,25.00
2022-08-10T04:44:21.784Z,25.00
2022-08-10T04:46:58.332Z,25.00
2022-08-10T04:49:56.366Z,25.00
2022-08-10T04:52:27.678Z,25.00
2022-08-10T04:55:01.822Z,24.90
2022-08-10T04:57:35.822Z,25.00
2022-08-10T05:00:17.093Z,24.90
2022-08-10T05:02:53.439Z,24.90
2022-08-10T05:05:27.620Z,24.90
2022-08-10T05:08:02.021Z,25.00
2022-08-10T05:10:36.402Z,24.90
2022-08-10T05:13:10.455Z,24.90
2022-08-10T05:15:46.117Z,24.90
2022-08-10T05:18:20.169Z,25.00
2022-08-10T05:20:54.199Z,24.90
2022-08-10T05:23:28.099Z,24.90
2022-08-10T05:26:02.113Z,25.00
2022-08-10T05:28:36.276Z,24.90
2022-08-10T05:31:11.869Z,24.90
2022-08-10T05:34:20.364Z,24.90
2022-08-10T05:36:56.096Z,24.90
2022-08-10T05:39:32.280Z,24.90
2022-08-10T05:42:06.915Z,24.90
2022-08-10T05:44:41.869Z,25.00
2022-08-10T05:47:17.980Z,25.00
2022-08-10T05:49:54.229Z,25.00
2022-08-10T05:52:28.702Z,25.00
2022-08-10T05:55:03.242Z,24.90
2022-08-10T05:57:37.609Z,24.90
2022-08-10T06:00:36.273Z,24.90
2022-08-10T06:03:12.266Z,24.90
2022-08-10T06:05:47.831Z,24.90
2022-08-10T06:08:26.972Z,24.90
2022-08-10T06:12:28.314Z,24.90
2022-08-10T06:14:32.054Z,24.90
2022-08-10T06:17:06.668Z,24.90
2022-08-10T06:19:44.355Z,24.90
2022-08-10T06:22:20.127Z,24.90
2022-08-10T06:25:21.734Z,24.90
2022-08-10T06:27:50.422Z,24.90
2022-08-10T06:30:27.195Z,25.00
2022-08-10T06:33:03.794Z,25.00
2022-08-10T06:35:40.878Z,24.90
2022-08-10T06:38:16.742Z,24.90
2022-08-10T06:40:51.988Z,24.90
2022-08-10T06:43:26.682Z,25.00
2022-08-10T06:46:07.289Z,25.00
2022-08-10T06:48:49.382Z,25.00
2022-08-10T06:51:28.271Z,25.00
2022-08-10T06:54:05.896Z,25.00
2022-08-10T06:56:55.801Z,25.00
2022-08-10T06:59:40.035Z,24.90
2022-08-10T07:02:37.080Z,24.90
2022-08-10T07:05:17.432Z,24.80
2022-08-10T07:07:56.071Z,24.80
2022-08-10T07:10:41.251Z,24.70
2022-08-10T07:14:14.218Z,24.70
2022-08-10T07:16:17.590Z,24.70
2022-08-10T07:18:51.748Z,24.60
2022-08-10T07:21:27.252Z,24.60
2022-08-10T07:24:04.966Z,24.60
2022-08-10T07:26:42.078Z,24.60
2022-08-10T07:29:26.422Z,24.60
2022-08-10T07:32:11.030Z,24.50
2022-08-10T07:34:48.207Z,24.50
2022-08-10T07:37:24.534Z,24.50
2022-08-10T07:40:03.283Z,24.40
2022-08-10T07:42:45.468Z,24.40
2022-08-10T07:45:20.371Z,24.40
2022-08-10T07:48:06.718Z,24.40
2022-08-10T07:50:44.307Z,24.40
2022-08-10T07:53:22.955Z,24.30
2022-08-10T07:56:02.043Z,24.30
2022-08-10T07:58:52.514Z,24.30
2022-08-10T08:01:33.220Z,24.30
2022-08-10T08:04:11.546Z,24.20
2022-08-10T08:06:47.469Z,24.20
2022-08-10T08:09:22.337Z,24.20
2022-08-10T08:11:59.056Z,24.20
2022-08-10T08:14:33.986Z,24.20
2022-08-10T08:17:10.451Z,24.20
2022-08-10T08:19:55.565Z,24.20
2022-08-10T08:24:06.417Z,24.20
2022-08-10T08:25:25.866Z,24.20
2022-08-10T08:28:02.896Z,24.10
2022-08-10T08:30:38.431Z,24.10
2022-08-10T08:33:20.054Z,24.10
2022-08-10T08:36:09.247Z,24.10
2022-08-10T08:38:44.293Z,24.10
2022-08-10T08:41:50.544Z,24.10
2022-08-10T08:44:36.251Z,24.10
2022-08-10T08:48:03.653Z,24.10
2022-08-10T08:50:43.529Z,24.10
2022-08-10T08:54:02.782Z,24.00
2022-08-10T08:56:32.622Z,24.00
2022-08-10T08:59:30.678Z,24.00
2022-08-10T09:02:30.944Z,24.00
2022-08-10T09:05:29.830Z,24.00
2022-08-10T09:08:37.456Z,24.00
2022-08-10T09:11:27.722Z,24.00
2022-08-10T09:14:08.050Z,24.00
2022-08-10T09:16:49.192Z,24.00
2022-08-10T09:19:36.232Z,24.00
2022-08-10T09:22:19.450Z,24.00
2022-08-10T09:25:00.563Z,24.00
2022-08-10T09:27:43.584Z,24.00
2022-08-10T09:30:28.422Z,24.00
2022-08-10T09:36:21.603Z,24.00
2022-08-10T09:36:32.344Z,23.90
2022-08-10T09:40:06.646Z,24.00
2022-08-10T09:42:16.531Z,23.90
2022-08-10T09:44:58.844Z,23.90
2022-08-10T09:48:01.829Z,23.90
2022-08-10T09:53:57.263Z,23.90
2022-08-10T09:56:37.741Z,23.90
2022-08-10T09:59:59.162Z,23.90
2022-08-10T10:02:19.652Z,23.80
2022-08-10T10:05:05.155Z,23.80
2022-08-10T10:07:47.007Z,23.90
2022-08-10T10:10:26.096Z,23.80
2022-08-10T10:13:05.668Z,23.80
2022-08-10T10:15:49.835Z,23.90
2022-08-10T10:18:33.530Z,23.90
2022-08-10T10:21:24.056Z,23.80
2022-08-10T10:24:20.480Z,23.80
2022-08-10T10:27:00.395Z,23.80
2022-08-10T10:29:56.816Z,23.80
2022-08-10T10:32:46.346Z,23.90
2022-08-10T10:35:26.002Z,23.90
2022-08-10T10:38:03.565Z,23.80
2022-08-10T10:40:46.851Z,23.80
2022-08-10T10:43:36.050Z,23.80
2022-08-10T10:46:23.210Z,23.80
2022-08-10T10:49:07.872Z,23.80
2022-08-10T10:51:49.594Z,23.90
2022-08-10T10:54:33.966Z,23.90
2022-08-10T10:57:15.193Z,23.90
2022-08-10T10:59:57.886Z,24.00
2022-08-10T11:02:45.218Z,24.00
2022-08-10T11:05:39.592Z,24.00
2022-08-10T11:08:20.269Z,24.10
2022-08-10T11:11:10.886Z,24.10
2022-08-10T11:14:24.896Z,24.20
2022-08-10T11:17:09.027Z,24.20
2022-08-10T11:20:02.553Z,24.20
2022-08-10T11:22:46.008Z,24.20
2022-08-10T11:25:29.553Z,24.30
2022-08-10T11:28:12.132Z,24.30
2022-08-10T11:30:53.801Z,24.30
2022-08-10T11:34:03.814Z,24.40
2022-08-10T11:36:43.006Z,24.40
2022-08-10T11:39:22.744Z,24.40
2022-08-10T11:42:07.691Z,24.40
2022-08-10T11:44:52.485Z,24.40
2022-08-10T11:47:37.471Z,24.40
2022-08-10T11:50:18.950Z,24.40
2022-08-10T11:53:05.620Z,24.50
2022-08-10T11:55:39.834Z,24.50
2022-08-10T11:58:32.926Z,24.50
2022-08-10T12:01:10.643Z,24.50
2022-08-10T12:03:47.969Z,24.50
2022-08-10T12:06:45.495Z,24.50
2022-08-10T12:10:06.059Z,24.60
2022-08-10T12:12:14.455Z,24.60
2022-08-10T12:14:55.086Z,24.50
2022-08-10T12:17:33.841Z,24.60
2022-08-10T12:20:14.596Z,24.60
2022-08-10T12:22:55.717Z,24.60
2022-08-10T12:25:55.934Z,24.50
2022-08-10T12:28:51.236Z,24.60
2022-08-10T12:31:31.376Z,24.60
2022-08-10T12:34:18.214Z,24.60
2022-08-10T12:37:02.187Z,24.60
2022-08-10T12:39:44.994Z,24.60
2022-08-10T12:42:38.729Z,24.60
2022-08-10T12:45:21.693Z,24.60
2022-08-10T12:48:05.191Z,24.60
2022-08-10T12:50:43.507Z,24.60
2022-08-10T12:53:31.672Z,24.60
2022-08-10T12:56:07.414Z,24.60
2022-08-10T12:58:59.752Z,24.60
2022-08-10T13:02:07.927Z,24.60
2022-08-10T13:04:34.196Z,24.60
2022-08-10T13:07:09.446Z,24.60
2022-08-10T13:09:56.185Z,24.60
2022-08-10T13:12:36.343Z,24.60
2022-08-10T13:15:45.215Z,24.60
2022-08-10T13:18:19.617Z,24.60
2022-08-10T13:20:57.322Z,24.60
2022-08-10T13:23:33.985Z,24.60
2022-08-10T13:26:14.732Z,24.60
2022-08-10T13:28:54.088Z,24.60
2022-08-10T13:32:04.351Z,24.60
2022-08-10T13:34:42.676Z,24.60
2022-08-10T13:37:22.615Z,24.60
2022-08-10T13:40:01.022Z,24.60
2022-08-10T13:42:39.280Z,24.60
2022-08-10T13:45:16.918Z,24.60
2022-08-10T13:47:55.678Z,24.60
2022-08-10T13:50:35.573Z,24.60
2022-08-10T13:53:15.504Z,24.60
2022-08-10T13:55:56.145Z,24.60
2022-08-10T13:58:34.305Z,24.60
2022-08-10T14:01:12.993Z,24.60
2022-08-10T14:03:48.969Z,24.60
2022-08-10T14:06:29.524Z,24.60
2022-08-10T14:09:09.092Z,24.60
2022-08-10T14:11:44.581Z,24.60
2022-08-10T14:14:22.081Z,24.60
2022-08-10T14:16:58.665Z,24.60
2022-08-10T14:19:37.749Z,24.60
2022-08-10T14:22:34.212Z,24.60
2022-08-10T14:25:10.161Z,24.60
2022-08-10T14:28:03.006Z,24.60
2022-08-10T14:30:40.013Z,24.60
2022-08-10T14:33:18.904Z,24.60
2022-08-10T14:36:21.179Z,24.60
2022-08-10T14:38:52.968Z,24.60
2022-08-10T14:42:03.365Z,24.60
2022-08-10T14:44:28.756Z,24.60
2022-08-10T14:47:08.586Z,24.60
2022-08-10T14:50:03.138Z,24.60
2022-08-10T14:52:43.976Z,24.60
2022-08-10T14:55:20.154Z,24.60
2022-08-10T14:58:18.964Z,24.60
2022-08-10T15:00:50.591Z,24.60
2022-08-10T15:04:00.837Z,24.60
2022-08-10T15:06:30.668Z,24.60
2022-08-10T15:09:12.247Z,24.60
2022-08-10T15:12:14.223Z,24.60
2022-08-10T15:14:51.544Z,24.60
2022-08-10T15:17:28.431Z,24.60
2022-08-10T15:20:13.675Z,24.60
2022-08-10T15:22:50.953Z,24.60
2022-08-10T15:25:27.067Z,24.60
2022-08-10T15:28:06.352Z,24.60
2022-08-10T15:30:43.161Z,24.70
2022-08-10T15:33:59.355Z,24.70
2022-08-10T15:37:01.957Z,24.60
2022-08-10T15:40:25.764Z,24.60
2022-08-10T15:42:58.413Z,24.70
2022-08-10T15:45:33.778Z,24.70
2022-08-10T15:48:08.752Z,24.60
2022-08-10T15:50:47.193Z,24.70
2022-08-10T15:53:32.475Z,24.60
2022-08-10T15:56:31.576Z,24.60
2022-08-10T15:59:12.343Z,24.60
2022-08-10T16:02:14.812Z,24.60
2022-08-10T16:04:50.642Z,24.60
2022-08-10T16:07:49.155Z,24.60
2022-08-10T16:10:30.874Z,24.60
2022-08-10T16:13:59.507Z,24.60
2022-08-10T16:16:04.458Z,24.60
2022-08-10T16:18:40.814Z,24.60
2022-08-10T16:21:18.748Z,24.60
2022-08-10T16:24:14.332Z,24.60
2022-08-10T16:26:54.308Z,24.60
2022-08-10T16:29:30.189Z,24.60
2022-08-10T16:32:06.494Z,24.60
2022-08-10T16:34:42.175Z,24.60
2022-08-10T16:37:18.025Z,24.60
2022-08-10T16:39:57.963Z,24.60
2022-08-10T16:42:44.311Z,24.50
2022-08-10T16:45:21.968Z,24.60
2022-08-10T16:47:59.097Z,24.50
2022-08-10T16:50:37.747Z,24.50
2022-08-10T16:53:14.541Z,24.60
2022-08-10T16:55:51.149Z,24.60
2022-08-10T16:58:30.344Z,24.60
2022-08-10T17:01:08.813Z,24.60
2022-08-10T17:04:06.364Z,24.60
2022-08-10T17:06:44.415Z,24.50
2022-08-10T17:09:21.079Z,24.50
2022-08-10T17:11:56.919Z,24.50
2022-08-10T17:14:32.850Z,24.50
2022-08-10T17:17:10.009Z,24.50
2022-08-10T17:19:46.196Z,24.50
2022-08-10T17:22:22.904Z,24.50
2022-08-10T17:25:01.434Z,24.50
2022-08-10T17:28:05.633Z,24.50
2022-08-10T17:30:57.818Z,24.50
2022-08-10T17:33:32.828Z,24.50
2022-08-10T17:36:08.235Z,24.50
2022-08-10T17:38:48.277Z,24.50
2022-08-10T17:41:28.874Z,24.50
2022-08-10T17:44:06.132Z,24.50
2022-08-10T17:46:45.524Z,24.50
2022-08-10T17:49:21.921Z,24.50
2022-08-10T17:51:59.279Z,24.50
2022-08-10T17:54:36.009Z,24.50
2022-08-10T17:57:13.644Z,24.60
2022-08-10T17:59:49.646Z,24.60
2022-08-10T18:02:28.753Z,24.60
2022-08-10T18:05:04.647Z,24.60
2022-08-10T18:07:42.105Z,24.60
2022-08-10T18:10:20.104Z,24.60
2022-08-10T18:12:56.282Z,24.60
2022-08-10T18:15:32.565Z,24.60
2022-08-10T18:18:17.905Z,24.60
2022-08-10T18:21:02.041Z,24.60
2022-08-10T18:23:39.180Z,24.60
2022-08-10T18:26:16.352Z,24.60
2022-08-10T18:28:56.022Z,24.60
2022-08-10T18:31:31.986Z,24.60
2022-08-10T18:34:12.804Z,24.60
2022-08-10T18:36:49.050Z,24.60
2022-08-10T18:39:27.501Z,24.60
2022-08-10T18:42:08.101Z,24.60
2022-08-10T18:44:45.718Z,24.60
2022-08-10T18:47:30.247Z,24.70
2022-08-10T18:50:10.983Z,24.60
2022-08-10T18:52:50.390Z,24.60
2022-08-10T18:55:35.462Z,24.60
2022-08-10T18:58:45.140Z,24.60
2022-08-10T19:01:37.110Z,24.70
2022-08-10T19:04:25.450Z,24.60
2022-08-10T19:07:36.785Z,24.60
2022-08-10T19:10:21.531Z,24.70
2022-08-10T19:13:02.224Z,24.60
2022-08-10T19:15:47.956Z,24.60
2022-08-10T19:18:32.841Z,24.70
2022-08-10T19:21:15.657Z,24.60
2022-08-10T19:24:01.623Z,24.70
2022-08-10T19:26:46.219Z,24.70
2022-08-10T19:30:08.039Z,24.70
2022-08-10T19:32:33.189Z,24.70
2022-08-10T19:35:18.236Z,24.70
2022-08-10T19:38:07.539Z,24.70
2022-08-10T19:41:09.606Z,24.70
2022-08-10T19:44:01.847Z,24.70
2022-08-10T19:46:42.464Z,24.70
2022-08-10T19:49:28.565Z,24.70
2022-08-10T19:52:10.903Z,24.70
2022-08-10T19:54:57.103Z,24.70
2022-08-10T19:57:37.248Z,24.70
2022-08-10T20:00:19.451Z,24.70
2022-08-10T20:03:12.157Z,24.70
2022-08-10T20:06:18.520Z,24.70
2022-08-10T20:08:57.570Z,24.70
2022-08-10T20:11:44.644Z,24.70
2022-08-10T20:14:26.977Z,24.70
2022-08-10T20:17:05.554Z,24.70
2022-08-10T20:19:53.482Z,24.70
2022-08-10T20:22:33.759Z,24.70
2022-08-10T20:28:11.138Z,24.70
2022-08-10T20:30:49.491Z,24.70
2022-08-10T20:33:30.570Z,24.70
2022-08-10T20:36:11.541Z,24.70
2022-08-10T20:38:57.456Z,24.70
2022-08-10T20:41:46.051Z,24.70
2022-08-10T20:44:35.814Z,24.70
2022-08-10T20:47:13.316Z,24.70
2022-08-10T20:49:55.305Z,24.70
2022-08-10T20:52:31.111Z,24.70
2022-08-10T20:55:09.889Z,24.70
2022-08-10T20:58:01.755Z,24.70
2022-08-10T21:00:48.216Z,24.70
2022-08-10T21:03:44.054Z,24.70
2022-08-10T21:06:43.307Z,24.70
2022-08-10T21:09:30.880Z,24.70
2022-08-10T21:12:24.080Z,24.80
2022-08-10T21:15:11.179Z,24.70
2022-08-10T21:18:01.758Z,24.80
2022-08-10T21:20:47.389Z,24.70
2022-08-10T21:23:46.983Z,24.70
2022-08-10T21:26:29.501Z,24.70
2022-08-10T21:29:37.958Z,24.70
2022-08-10T21:32:44.204Z,24.70
2022-08-10T21:35:37.405Z,24.70
2022-08-10T21:38:24.354Z,24.70
2022-08-10T21:41:58.011Z,24.70
2022-08-10T21:45:08.209Z,24.70
2022-08-10T21:48:18.064Z,24.70
2022-08-10T21:51:14.991Z,24.70
2022-08-10T21:54:26.009Z,24.70
2022-08-10T21:57:25.778Z,24.70
2022-08-10T22:03:39.646Z,24.70
2022-08-10T22:06:35.115Z,24.70
2022-08-10T22:09:37.115Z,24.60
2022-08-10T22:12:38.149Z,24.60
2022-08-10T22:16:09.654Z,24.70
2022-08-10T22:19:01.468Z,24.70
2022-08-10T22:25:24.677Z,24.60
2022-08-10T22:28:18.265Z,24.70
2022-08-10T22:31:36.999Z,24.70
2022-08-10T22:35:00.478Z,24.70
2022-08-10T22:38:07.676Z,24.70
2022-08-10T22:41:03.717Z,24.60
2022-08-10T22:43:56.996Z,24.70
2022-08-10T22:46:51.466Z,24.60
2022-08-10T22:49:24.110Z,24.60
2022-08-10T22:52:02.740Z,24.60
2022-08-10T22:55:03.726Z,24.70
2022-08-10T22:58:01.651Z,24.70
2022-08-10T23:00:36.800Z,24.70
2022-08-10T23:03:22.011Z,24.70
2022-08-10T23:06:00.175Z,24.70
2022-08-10T23:08:42.181Z,24.70
2022-08-10T23:11:21.977Z,24.70
2022-08-10T23:14:02.365Z,24.70
2022-08-10T23:16:59.337Z,24.70
2022-08-10T23:19:37.360Z,24.70
2022-08-10T23:22:13.883Z,24.70
2022-08-10T23:24:52.993Z,24.70
2022-08-10T23:27:38.894Z,24.70
2022-08-10T23:30:17.958Z,24.70
2022-08-10T23:33:00.490Z,24.70
2022-08-10T23:36:31.212Z,24.70
2022-08-10T23:38:42.530Z,24.70
2022-08-10T23:41:17.690Z,24.70
2022-08-10T23:44:03.882Z,24.70
2022-08-10T23:46:42.734Z,24.70
2022-08-10T23:49:18.337Z,24.70
2022-08-10T23:51:56.113Z,24.70
2022-08-10T23:54:31.233Z,24.80
2022-08-10T23:57:05.392Z,24.70
2022-08-10T23:59:40.995Z,24.70
